Dades meteomassalio
Diari Summary for Maig 1, 2017 Units:  Metric    English   Both
« Previous Day
Next Day »
Diari Semanal Mensual Anual Personalitzat
  Maxima: Minima: Mijana:
Temperatura: 19.0 °C 5.4 °C 12.1 °C
Rosada: 8.4 °C -2.1 °C 2.5 °C
Humitat: 85 % 26 % 57 %
Velocitat del vent: 35.4 km/h 0.0 km/h 13.6 km/h
Racha vent: 35.4 km/h - -
Vent:- - WNW
Pressio: 1021.6 hPa 1013.1 hPa -
Pluja: 0.0 mm    
Historical Graphs
 
 
Tabular Data for Maig 1, 2017
Time Temperature Dew Point Pressure Wind Wind Speed Wind Gust Humidity Rainfall Rate (Hourly) solar Conditions
00:01 11.4 °C 7.9 °C 1013.1 hPa Calm     79 % 0.0 mm 0.0 W/m2 RA
00:06 11.4 °C 7.9 °C 1013.1 hPa Calm     79 % 0.0 mm 0.0 W/m2 CLR
00:11 11.4 °C 7.9 °C 1013.1 hPa Calm     79 % 0.0 mm 0.0 W/m2 CLR
00:16 11.4 °C 7.9 °C 1013.4 hPa Calm     79 % 0.0 mm 0.0 W/m2 CLR
00:21 11.3 °C 8.0 °C 1013.4 hPa Calm     80 % 0.0 mm 0.0 W/m2 CLR
00:26 11.2 °C 7.9 °C 1013.8 hPa Calm     80 % 0.0 mm 0.0 W/m2 CLR
00:31 11.2 °C 8.1 °C 1013.8 hPa Calm     81 % 0.0 mm 0.0 W/m2 CLR
00:36 11.2 °C 8.0 °C 1013.8 hPa Calm     81 % 0.0 mm 0.0 W/m2 CLR
00:41 11.2 °C 8.2 °C 1013.8 hPa Calm     82 % 0.0 mm 0.0 W/m2 CLR
00:42 11.2 °C 8.2 °C 1013.8 hPa Calm     82 % 0.0 mm 0.0 W/m2 CLR
00:47 11.2 °C 8.4 °C 1014.1 hPa Calm     83 % 0.0 mm 0.0 W/m2 CLR
00:52 11.1 °C 8.1 °C 1014.1 hPa Calm     82 % 0.0 mm 0.0 W/m2 CLR
00:57 11.0 °C 8.1 °C 1014.1 hPa Calm     82 % 0.0 mm 0.0 W/m2 CLR
01:02 10.9 °C 7.6 °C 1014.1 hPa Calm     80 % 0.0 mm 0.0 W/m2 CLR
01:07 10.9 °C 7.4 °C 1014.1 hPa Calm     79 % 0.0 mm 0.0 W/m2 CLR
01:12 10.8 °C 7.3 °C 1014.4 hPa Calm     79 % 0.0 mm 0.0 W/m2 CLR
01:17 10.7 °C 7.0 °C 1014.4 hPa NW 16.1 km/h 16.1 km/h 78 % 0.0 mm 0.0 W/m2 CLR
01:22 10.6 °C 6.6 °C 1014.4 hPa NNW 18.5 km/h 18.5 km/h 76 % 0.0 mm 0.0 W/m2 CLR
01:27 10.6 °C 6.6 °C 1014.8 hPa NNW 18.5 km/h 18.5 km/h 76 % 0.0 mm 0.0 W/m2 CLR
01:32 10.6 °C 6.5 °C 1014.8 hPa NNW 24.1 km/h 24.1 km/h 76 % 0.0 mm 0.0 W/m2 CLR
01:37 10.4 °C 6.4 °C 1015.1 hPa NW 27.8 km/h 27.8 km/h 76 % 0.0 mm 0.0 W/m2 CLR
01:42 10.4 °C 6.6 °C 1015.1 hPa NW 14.8 km/h 14.8 km/h 77 % 0.0 mm 0.0 W/m2 CLR
01:47 10.3 °C 6.4 °C 1015.1 hPa NW 24.1 km/h 24.1 km/h 77 % 0.0 mm 0.0 W/m2 CLR
01:52 10.2 °C 6.5 °C 1015.1 hPa NW 18.5 km/h 18.5 km/h 78 % 0.0 mm 0.0 W/m2 CLR
01:57 10.0 °C 6.5 °C 1015.5 hPa NW 16.7 km/h 16.7 km/h 79 % 0.0 mm 0.0 W/m2 CLR
02:02 9.9 °C 6.6 °C 1015.5 hPa NW 20.4 km/h 20.4 km/h 80 % 0.0 mm 0.0 W/m2 CLR
02:07 9.8 °C 6.7 °C 1015.5 hPa WNW 24.1 km/h 24.1 km/h 81 % 0.0 mm 0.0 W/m2 CLR
02:12 9.7 °C 6.6 °C 1015.5 hPa NW 18.5 km/h 18.5 km/h 81 % 0.0 mm 0.0 W/m2 CLR
02:17 9.4 °C 6.3 °C 1015.8 hPa WNW 20.4 km/h 20.4 km/h 81 % 0.0 mm 0.0 W/m2 CLR
02:22 9.3 °C 6.2 °C 1015.8 hPa NW 16.7 km/h 16.7 km/h 81 % 0.0 mm 0.0 W/m2 CLR
02:27 9.2 °C 6.1 °C 1015.8 hPa WNW 14.8 km/h 14.8 km/h 81 % 0.0 mm 0.0 W/m2 CLR
02:32 9.1 °C 5.8 °C 1015.8 hPa NW 16.7 km/h 16.7 km/h 80 % 0.0 mm 0.0 W/m2 CLR
02:37 8.9 °C 5.7 °C 1015.8 hPa NW 20.4 km/h 20.4 km/h 80 % 0.0 mm 0.0 W/m2 CLR
02:42 8.8 °C 5.4 °C 1015.8 hPa WNW 25.9 km/h 25.9 km/h 79 % 0.0 mm 0.0 W/m2 CLR
02:47 8.7 °C 5.3 °C 1015.8 hPa WNW 16.1 km/h 16.1 km/h 79 % 0.0 mm 0.0 W/m2 CLR
02:52 8.6 °C 5.3 °C 1015.8 hPa WNW 14.8 km/h 14.8 km/h 80 % 0.0 mm 0.0 W/m2 CLR
02:57 8.4 °C 5.1 °C 1016.1 hPa WNW 18.5 km/h 18.5 km/h 80 % 0.0 mm 0.0 W/m2 CLR
03:02 8.2 °C 5.0 °C 1016.1 hPa WNW 12.9 km/h 12.9 km/h 80 % 0.0 mm 0.0 W/m2 CLR
03:07 8.1 °C 4.8 °C 1016.1 hPa NW 13.0 km/h 13.0 km/h 80 % 0.0 mm 0.0 W/m2 CLR
03:12 7.9 °C 4.7 °C 1016.1 hPa West 20.4 km/h 20.4 km/h 80 % 0.0 mm 0.0 W/m2 CLR
03:17 7.8 °C 4.4 °C 1016.1 hPa West 14.8 km/h 14.8 km/h 79 % 0.0 mm 0.0 W/m2 CLR
03:22 7.8 °C 4.4 °C 1016.5 hPa NW 16.7 km/h 16.7 km/h 79 % 0.0 mm 0.0 W/m2 CLR
03:27 7.7 °C 4.3 °C 1016.5 hPa WNW 18.5 km/h 18.5 km/h 79 % 0.0 mm 0.0 W/m2 CLR
03:32 7.5 °C 4.1 °C 1016.5 hPa WNW 18.5 km/h 18.5 km/h 79 % 0.0 mm 0.0 W/m2 CLR
03:37 7.3 °C 3.9 °C 1016.5 hPa West 16.7 km/h 16.7 km/h 79 % 0.0 mm 0.0 W/m2 CLR
03:42 7.3 °C 4.1 °C 1016.5 hPa NW 14.8 km/h 14.8 km/h 80 % 0.0 mm 0.0 W/m2 CLR
03:47 7.1 °C 3.9 °C 1016.5 hPa NW 13.0 km/h 13.0 km/h 80 % 0.0 mm 0.0 W/m2 CLR
03:52 7.1 °C 3.8 °C 1016.8 hPa WNW 16.7 km/h 16.7 km/h 80 % 0.0 mm 0.0 W/m2 CLR
03:57 6.9 °C 3.9 °C 1016.8 hPa NW 14.8 km/h 14.8 km/h 81 % 0.0 mm 0.0 W/m2 CLR
04:02 6.8 °C 3.8 °C 1016.8 hPa NW 11.1 km/h 11.1 km/h 81 % 0.0 mm 0.0 W/m2 CLR
04:08 6.8 °C 3.7 °C 1016.8 hPa WNW 9.7 km/h 9.8 km/h 81 % 0.0 mm 0.0 W/m2 CLR
04:13 6.7 °C 3.7 °C 1016.8 hPa WNW 9.3 km/h 9.3 km/h 81 % 0.0 mm 0.0 W/m2 CLR
04:18 6.6 °C 3.6 °C 1017.2 hPa Calm     81 % 0.0 mm 0.0 W/m2 CLR
04:23 6.6 °C 3.5 °C 1017.2 hPa Calm     81 % 0.0 mm 0.0 W/m2 CLR
04:28 6.7 °C 3.7 °C 1017.2 hPa Calm     81 % 0.0 mm 0.0 W/m2 CLR
04:33 6.8 °C 3.6 °C 1017.5 hPa Calm     80 % 0.0 mm 0.0 W/m2 CLR
04:38 6.9 °C 3.7 °C 1017.5 hPa West 9.7 km/h 9.7 km/h 80 % 0.0 mm 0.0 W/m2 CLR
04:43 6.9 °C 3.7 °C 1017.5 hPa WSW 11.3 km/h 11.3 km/h 80 % 0.0 mm 0.0 W/m2 CLR
04:48 6.9 °C 3.7 °C 1017.5 hPa WNW 13.0 km/h 13.0 km/h 80 % 0.0 mm 0.0 W/m2 CLR
04:53 6.8 °C 3.6 °C 1017.8 hPa WNW 11.1 km/h 11.1 km/h 80 % 0.0 mm 0.0 W/m2 CLR
04:58 6.7 °C 3.5 °C 1017.8 hPa WNW 9.3 km/h 9.3 km/h 80 % 0.0 mm 0.0 W/m2 CLR
05:03 6.6 °C 3.5 °C 1017.8 hPa WNW 5.6 km/h 5.6 km/h 81 % 0.0 mm 0.0 W/m2 CLR
05:08 6.4 °C 3.4 °C 1017.8 hPa NW 4.8 km/h 4.8 km/h 81 % 0.0 mm 0.0 W/m2 CLR
05:13 6.3 °C 3.5 °C 1017.8 hPa Calm     82 % 0.0 mm 0.0 W/m2 CLR
05:18 6.3 °C 3.4 °C 1017.8 hPa Calm     82 % 0.0 mm 0.0 W/m2 CLR
05:23 6.1 °C 3.3 °C 1017.8 hPa Calm     82 % 0.0 mm 0.0 W/m2 CLR
05:28 5.9 °C 3.2 °C 1017.8 hPa Calm     83 % 0.0 mm 0.0 W/m2 CLR
05:33 5.8 °C 3.3 °C 1017.8 hPa Calm     84 % 0.0 mm 0.0 W/m2 CLR
05:38 5.6 °C 3.1 °C 1017.8 hPa Calm     84 % 0.0 mm 0.0 W/m2 CLR
05:43 5.7 °C 3.2 °C 1018.2 hPa Calm     84 % 0.0 mm 0.0 W/m2 CLR
05:48 5.9 °C 3.2 °C 1018.2 hPa Calm     83 % 0.0 mm 0.0 W/m2 CLR
05:53 5.8 °C 3.2 °C 1018.2 hPa Calm     83 % 0.0 mm 0.0 W/m2 CLR
05:58 5.8 °C 3.2 °C 1018.2 hPa Calm     83 % 0.0 mm 0.0 W/m2 CLR
06:03 5.6 °C 3.1 °C 1018.2 hPa SW 5.6 km/h 5.6 km/h 84 % 0.0 mm 0.0 W/m2 CLR
06:08 5.4 °C 3.1 °C 1018.5 hPa WSW 11.1 km/h 11.1 km/h 85 % 0.0 mm 0.0 W/m2 CLR
06:13 5.5 °C 3.2 °C 1018.5 hPa SW 11.1 km/h 11.1 km/h 85 % 0.0 mm 0.0 W/m2 CLR
06:18 5.6 °C 3.2 °C 1018.5 hPa WSW 11.1 km/h 11.1 km/h 85 % 0.0 mm 0.0 W/m2 CLR
06:23 5.6 °C 3.3 °C 1018.5 hPa WSW 7.4 km/h 7.4 km/h 85 % 0.0 mm 0.0 W/m2 CLR
06:28 5.7 °C 3.3 °C 1018.8 hPa West 11.1 km/h 11.1 km/h 85 % 0.0 mm 0.0 W/m2 CLR
06:33 5.8 °C 3.3 °C 1018.8 hPa West 11.1 km/h 11.1 km/h 84 % 0.0 mm 0.0 W/m2 CLR
06:38 6.0 °C 3.3 °C 1018.8 hPa WSW 5.6 km/h 5.6 km/h 83 % 0.0 mm 0.0 W/m2 CLR
06:43 6.2 °C 3.3 °C 1018.8 hPa West 13.0 km/h 13.0 km/h 82 % 0.0 mm 0.0 W/m2 CLR
06:48 6.4 °C 3.4 °C 1018.8 hPa West 13.0 km/h 13.0 km/h 81 % 0.0 mm 0.0 W/m2 OVC
06:53 6.5 °C 3.3 °C 1018.8 hPa WNW 13.0 km/h 13.0 km/h 80 % 0.0 mm 0.0 W/m2 OVC
06:58 6.6 °C 3.4 °C 1018.8 hPa West 13.0 km/h 13.0 km/h 80 % 0.0 mm 5.0 W/m2 OVC
07:03 6.7 °C 3.2 °C 1019.2 hPa West 14.8 km/h 14.8 km/h 78 % 0.0 mm 7.0 W/m2 BKN
07:08 6.7 °C 3.1 °C 1019.2 hPa West 9.3 km/h 9.3 km/h 78 % 0.0 mm 11.0 W/m2 BKN
07:13 6.7 °C 3.3 °C 1019.2 hPa West 11.1 km/h 11.1 km/h 79 % 0.0 mm 14.0 W/m2 BKN
07:18 6.7 °C 3.2 °C 1019.2 hPa Calm   1.3 km/h 78 % 0.0 mm 18.0 W/m2 BKN
07:23 6.8 °C 3.3 °C 1019.2 hPa West 12.9 km/h 12.9 km/h 78 % 0.0 mm 23.0 W/m2 BKN
07:28 6.9 °C 3.4 °C 1019.2 hPa Calm     78 % 0.0 mm 30.0 W/m2 BKN
07:33 7.1 °C 3.3 °C 1019.2 hPa WNW 1.6 km/h 1.6 km/h 77 % 0.0 mm 47.0 W/m2 BKN
07:38 7.2 °C 3.4 °C 1019.5 hPa West 3.7 km/h 3.7 km/h 77 % 0.0 mm 44.0 W/m2 SCT
07:43 7.4 °C 3.4 °C 1019.5 hPa WNW 18.5 km/h 18.5 km/h 76 % 0.0 mm 51.0 W/m2 SCT
07:48 7.5 °C 3.3 °C 1019.5 hPa WNW 9.3 km/h 9.3 km/h 75 % 0.0 mm 67.0 W/m2 FEW
07:53 7.7 °C 3.3 °C 1019.5 hPa West 18.5 km/h 18.5 km/h 74 % 0.0 mm 79.0 W/m2 FEW
07:58 7.8 °C 3.4 °C 1019.5 hPa WNW 16.7 km/h 16.7 km/h 74 % 0.0 mm 98.0 W/m2 FEW
08:03 7.8 °C 3.5 °C 1019.5 hPa West 14.8 km/h 14.8 km/h 74 % 0.0 mm 114.0 W/m2 CLR
08:08 7.9 °C 3.4 °C 1019.5 hPa West 18.5 km/h 18.5 km/h 73 % 0.0 mm 132.0 W/m2 CLR
08:13 8.0 °C 3.7 °C 1019.9 hPa West 18.5 km/h 18.5 km/h 74 % 0.0 mm 149.0 W/m2 CLR
08:18 8.1 °C 3.5 °C 1019.9 hPa West 18.5 km/h 18.5 km/h 73 % 0.0 mm 172.0 W/m2 CLR
08:19 8.0 °C 3.4 °C 1019.9 hPa West 18.5 km/h 18.5 km/h 73 % 0.0 mm 172.0 W/m2 CLR
08:24 8.2 °C 3.6 °C 1019.9 hPa West 14.8 km/h 14.8 km/h 73 % 0.0 mm 192.0 W/m2 CLR
08:29 8.3 °C 3.7 °C 1019.9 hPa West 18.5 km/h 18.5 km/h 73 % 0.0 mm 216.0 W/m2 CLR
08:34 8.4 °C 3.9 °C 1019.9 hPa WNW 11.1 km/h 11.1 km/h 73 % 0.0 mm 236.0 W/m2 CLR
08:39 8.6 °C 4.0 °C 1019.9 hPa West 20.4 km/h 20.4 km/h 73 % 0.0 mm 236.0 W/m2 CLR
08:44 8.7 °C 3.9 °C 1019.9 hPa West 14.8 km/h 14.8 km/h 72 % 0.0 mm 269.0 W/m2 CLR
08:49 8.8 °C 4.1 °C 1019.9 hPa WNW 14.8 km/h 14.8 km/h 72 % 0.0 mm 244.0 W/m2 CLR
08:54 8.9 °C 4.2 °C 1020.2 hPa WNW 18.5 km/h 18.5 km/h 72 % 0.0 mm 302.0 W/m2 CLR
08:59 8.9 °C 3.7 °C 1020.2 hPa WNW 24.1 km/h 24.1 km/h 70 % 0.0 mm 272.0 W/m2 CLR
09:04 9.0 °C 4.0 °C 1020.2 hPa WNW 22.2 km/h 22.2 km/h 71 % 0.0 mm 338.0 W/m2 CLR
09:09 9.1 °C 3.9 °C 1020.2 hPa NW 24.1 km/h 24.1 km/h 70 % 0.0 mm 355.0 W/m2 CLR
09:14 9.1 °C 3.9 °C 1020.2 hPa NW 18.5 km/h 18.5 km/h 70 % 0.0 mm 371.0 W/m2 CLR
09:19 9.2 °C 3.8 °C 1020.5 hPa WNW 22.2 km/h 22.2 km/h 69 % 0.0 mm 387.0 W/m2 CLR
09:24 9.3 °C 3.7 °C 1020.5 hPa NW 22.2 km/h 22.2 km/h 68 % 0.0 mm 202.0 W/m2 CLR
09:29 9.5 °C 3.9 °C 1020.5 hPa NW 27.8 km/h 27.8 km/h 68 % 0.0 mm 142.0 W/m2 CLR
09:34 9.4 °C 3.8 °C 1020.5 hPa WNW 29.6 km/h 29.6 km/h 68 % 0.0 mm 438.0 W/m2 CLR
09:39 9.6 °C 4.0 °C 1020.5 hPa WNW 25.9 km/h 25.9 km/h 68 % 0.0 mm 464.0 W/m2 CLR
09:44 9.8 °C 4.4 °C 1020.2 hPa WNW 27.8 km/h 27.8 km/h 69 % 0.0 mm 473.0 W/m2 CLR
09:49 9.8 °C 3.9 °C 1020.2 hPa WNW 31.5 km/h 31.5 km/h 67 % 0.0 mm 490.0 W/m2 CLR
09:54 9.9 °C 4.1 °C 1020.2 hPa WNW 29.6 km/h 29.6 km/h 67 % 0.0 mm 508.0 W/m2 CLR
09:59 10.2 °C 4.2 °C 1020.2 hPa WNW 25.9 km/h 25.9 km/h 66 % 0.0 mm 520.0 W/m2 CLR
10:04 10.3 °C 4.3 °C 1020.2 hPa WNW 24.1 km/h 24.1 km/h 66 % 0.0 mm 504.0 W/m2 CLR
10:09 10.3 °C 4.1 °C 1020.2 hPa NW 35.2 km/h 35.2 km/h 65 % 0.0 mm 515.0 W/m2 CLR
10:14 10.3 °C 4.1 °C 1020.5 hPa NW 35.2 km/h 35.2 km/h 65 % 0.0 mm 538.0 W/m2 CLR
10:20 10.6 °C 4.0 °C 1020.5 hPa NW 22.2 km/h 22.2 km/h 64 % 0.0 mm 580.0 W/m2 CLR
10:25 10.9 °C 4.3 °C 1020.5 hPa NW 25.7 km/h 25.7 km/h 64 % 0.0 mm 598.0 W/m2 CLR
10:30 11.1 °C 4.5 °C 1020.5 hPa NW 19.3 km/h 19.3 km/h 64 % 0.0 mm 612.0 W/m2 CLR
10:35 11.1 °C 3.8 °C 1020.5 hPa NNW 31.5 km/h 31.5 km/h 61 % 0.0 mm 626.0 W/m2 CLR
10:40 11.3 °C 4.0 °C 1020.5 hPa North 20.4 km/h 20.4 km/h 61 % 0.0 mm 642.0 W/m2 CLR
10:45 11.4 °C 3.9 °C 1020.5 hPa NNW 19.3 km/h 20.1 km/h 60 % 0.0 mm 652.0 W/m2 CLR
10:50 11.5 °C 4.0 °C 1020.5 hPa NW 22.2 km/h 22.2 km/h 60 % 0.0 mm 666.0 W/m2 CLR
10:55 11.7 °C 3.9 °C 1020.5 hPa WNW 20.4 km/h 20.4 km/h 59 % 0.0 mm 684.0 W/m2 CLR
11:00 11.8 °C 3.6 °C 1020.5 hPa WNW 25.9 km/h 25.9 km/h 57 % 0.0 mm 701.0 W/m2 CLR
11:05 11.9 °C 3.6 °C 1020.5 hPa WNW 31.5 km/h 31.5 km/h 57 % 0.0 mm 710.0 W/m2 CLR
11:10 12.0 °C 3.7 °C 1020.5 hPa NW 18.5 km/h 18.5 km/h 57 % 0.0 mm 708.0 W/m2 CLR
11:15 12.3 °C 3.6 °C 1020.5 hPa NW 27.8 km/h 27.8 km/h 55 % 0.0 mm 735.0 W/m2 CLR
11:20 12.3 °C 3.3 °C 1020.2 hPa NW 31.5 km/h 31.5 km/h 54 % 0.0 mm 745.0 W/m2 CLR
11:25 12.3 °C 3.0 °C 1020.5 hPa NW 29.6 km/h 29.6 km/h 53 % 0.0 mm 751.0 W/m2 CLR
11:30 12.5 °C 2.6 °C 1020.5 hPa NW 29.6 km/h 29.6 km/h 51 % 0.0 mm 772.0 W/m2 CLR
11:35 12.6 °C 3.7 °C 1020.5 hPa NNW 29.0 km/h 29.0 km/h 55 % 0.0 mm 782.0 W/m2 CLR
11:40 12.7 °C 3.3 °C 1020.5 hPa WNW 18.5 km/h 18.5 km/h 53 % 0.0 mm 791.0 W/m2 CLR
11:45 12.9 °C 2.4 °C 1020.5 hPa NNW 35.2 km/h 35.2 km/h 49 % 0.0 mm 795.0 W/m2 CLR
11:50 12.9 °C 2.4 °C 1020.2 hPa NNW 25.9 km/h 25.9 km/h 49 % 0.0 mm 807.0 W/m2 CLR
11:55 12.9 °C 2.4 °C 1020.2 hPa NW 24.1 km/h 24.1 km/h 49 % 0.0 mm 816.0 W/m2 CLR
12:00 13.1 °C 2.3 °C 1020.2 hPa NW 32.2 km/h 32.2 km/h 48 % 0.0 mm 826.0 W/m2 CLR
12:05 13.1 °C 2.3 °C 1020.2 hPa WNW 18.5 km/h 18.5 km/h 48 % 0.0 mm 821.0 W/m2 CLR
12:10 13.2 °C 2.2 °C 1020.5 hPa NW 31.5 km/h 31.5 km/h 47 % 0.0 mm 847.0 W/m2 CLR
12:15 13.5 °C 2.1 °C 1020.2 hPa WNW 35.4 km/h 35.4 km/h 46 % 0.0 mm 842.0 W/m2 CLR
12:20 13.4 °C 1.7 °C 1020.5 hPa WNW 22.2 km/h 22.2 km/h 45 % 0.0 mm 856.0 W/m2 CLR
12:25 13.6 °C 2.5 °C 1020.2 hPa NNW 27.8 km/h 27.8 km/h 47 % 0.0 mm 870.0 W/m2 CLR
12:30 13.6 °C 1.9 °C 1020.2 hPa WNW 25.9 km/h 25.9 km/h 45 % 0.0 mm 879.0 W/m2 CLR
12:35 13.8 °C 2.1 °C 1020.2 hPa NW 18.5 km/h 18.5 km/h 45 % 0.0 mm 853.0 W/m2 CLR
12:40 14.2 °C 2.4 °C 1020.5 hPa NNW 22.5 km/h 22.5 km/h 45 % 0.0 mm 868.0 W/m2 CLR
12:45 13.9 °C 1.2 °C 1020.5 hPa NNW 24.1 km/h 24.1 km/h 42 % 0.0 mm 881.0 W/m2 CLR
12:50 14.1 °C 1.0 °C 1020.5 hPa NNW 35.4 km/h 35.4 km/h 41 % 0.0 mm 896.0 W/m2 CLR
12:55 13.9 °C 1.2 °C 1020.5 hPa NW 27.8 km/h 27.8 km/h 42 % 0.0 mm 898.0 W/m2 CLR
13:00 14.1 °C 2.0 °C 1020.2 hPa WNW 29.6 km/h 29.6 km/h 44 % 0.0 mm 896.0 W/m2 CLR
13:05 14.3 °C 1.6 °C 1020.2 hPa WNW 22.2 km/h 22.2 km/h 42 % 0.0 mm 858.0 W/m2 CLR
13:10 14.7 °C 1.2 °C 1020.2 hPa North 24.1 km/h 24.1 km/h 40 % 0.0 mm 918.0 W/m2 CLR
13:15 14.7 °C 1.6 °C 1020.2 hPa NNW 18.5 km/h 18.5 km/h 41 % 0.0 mm 921.0 W/m2 CLR
13:20 14.7 °C 1.2 °C 1020.2 hPa NNW 18.5 km/h 18.5 km/h 40 % 0.0 mm 921.0 W/m2 CLR
13:25 14.9 °C 1.1 °C 1020.2 hPa North 18.5 km/h 18.5 km/h 39 % 0.0 mm 923.0 W/m2 CLR
13:30 15.0 °C 1.5 °C 1020.2 hPa NNW 27.8 km/h 27.8 km/h 40 % 0.0 mm 930.0 W/m2 CLR
13:35 15.1 °C 1.2 °C 1019.9 hPa NNW 29.6 km/h 29.6 km/h 39 % 0.0 mm 949.0 W/m2 CLR
13:40 15.4 °C 1.5 °C 1019.9 hPa NNW 31.5 km/h 31.5 km/h 39 % 0.0 mm 933.0 W/m2 CLR
13:45 15.2 °C 1.0 °C 1019.9 hPa NW 5.6 km/h 5.6 km/h 38 % 0.0 mm 928.0 W/m2 CLR
13:50 15.3 °C 1.1 °C 1019.9 hPa NNW 24.1 km/h 24.1 km/h 38 % 0.0 mm 932.0 W/m2 CLR
13:55 15.5 °C 1.6 °C 1019.9 hPa NW 24.1 km/h 24.1 km/h 39 % 0.0 mm 940.0 W/m2 CLR
14:00 15.7 °C 1.4 °C 1019.9 hPa North 18.5 km/h 18.5 km/h 38 % 0.0 mm 932.0 W/m2 CLR
14:05 15.6 °C 1.3 °C 1019.9 hPa NNW 24.1 km/h 24.1 km/h 38 % 0.0 mm 932.0 W/m2 CLR
14:10 15.7 °C 1.0 °C 1019.9 hPa NNW 29.6 km/h 29.6 km/h 37 % 0.0 mm 928.0 W/m2 CLR
14:15 15.7 °C 1.8 °C 1019.9 hPa NW 22.5 km/h 22.5 km/h 39 % 0.0 mm 926.0 W/m2 CLR
14:20 16.0 °C 0.6 °C 1019.9 hPa North 31.5 km/h 31.5 km/h 35 % 0.0 mm 923.0 W/m2 CLR
14:25 16.1 °C 1.3 °C 1019.9 hPa WNW 18.5 km/h 18.5 km/h 37 % 0.0 mm 926.0 W/m2 CLR
14:30 16.2 °C 0.3 °C 1019.9 hPa NNW 29.6 km/h 29.6 km/h 34 % 0.0 mm 919.0 W/m2 CLR
14:35 16.1 °C 0.9 °C 1019.9 hPa WNW 18.5 km/h 18.5 km/h 36 % 0.0 mm 918.0 W/m2 CLR
14:36 16.1 °C 0.6 °C 1019.9 hPa NW 25.7 km/h 25.7 km/h 35 % 0.0 mm 914.0 W/m2 CLR
14:41 16.3 °C 0.4 °C 1019.9 hPa NW 22.2 km/h 22.2 km/h 34 % 0.0 mm 912.0 W/m2 CLR
14:46 16.2 °C -0.5 °C 1019.9 hPa WNW 27.8 km/h 27.8 km/h 32 % 0.0 mm 909.0 W/m2 CLR
14:51 16.4 °C 0.1 °C 1019.9 hPa NW 30.6 km/h 30.6 km/h 33 % 0.0 mm 904.0 W/m2 CLR
14:56 16.2 °C -0.1 °C 1019.9 hPa NNW 29.6 km/h 29.6 km/h 33 % 0.0 mm 900.0 W/m2 CLR
15:01 16.3 °C 0.0 °C 1019.5 hPa NW 25.9 km/h 25.9 km/h 33 % 0.0 mm 893.0 W/m2 CLR
15:06 16.5 °C 0.2 °C 1019.9 hPa NW 24.1 km/h 24.1 km/h 33 % 0.0 mm 886.0 W/m2 CLR
15:11 16.6 °C -0.7 °C 1019.5 hPa NNW 31.5 km/h 31.5 km/h 31 % 0.0 mm 882.0 W/m2 CLR
15:16 16.6 °C -0.6 °C 1019.5 hPa West 24.1 km/h 24.1 km/h 31 % 0.0 mm 879.0 W/m2 CLR
15:21 16.7 °C -0.5 °C 1019.9 hPa NNW 25.9 km/h 25.9 km/h 31 % 0.0 mm 872.0 W/m2 CLR
15:26 16.8 °C 0.0 °C 1019.9 hPa NW 22.2 km/h 22.2 km/h 32 % 0.0 mm 863.0 W/m2 CLR
15:31 16.8 °C -0.4 °C 1019.9 hPa North 27.8 km/h 27.8 km/h 31 % 0.0 mm 854.0 W/m2 CLR
15:36 16.7 °C -0.5 °C 1019.9 hPa WNW 31.5 km/h 31.5 km/h 31 % 0.0 mm 847.0 W/m2 CLR
15:41 16.8 °C -0.9 °C 1019.9 hPa North 25.9 km/h 25.9 km/h 30 % 0.0 mm 842.0 W/m2 CLR
15:46 17.1 °C -0.7 °C 1019.9 hPa NW 29.6 km/h 29.6 km/h 30 % 0.0 mm 835.0 W/m2 CLR
15:51 17.2 °C -0.1 °C 1019.9 hPa North 25.9 km/h 25.9 km/h 31 % 0.0 mm 826.0 W/m2 CLR
15:56 17.3 °C -0.5 °C 1019.5 hPa NW 18.5 km/h 20.4 km/h 30 % 0.0 mm 816.0 W/m2 CLR
16:01 17.4 °C -0.8 °C 1019.9 hPa NNW 35.2 km/h 35.2 km/h 29 % 0.0 mm 805.0 W/m2 CLR
16:06 17.4 °C -0.8 °C 1019.5 hPa NNW 22.2 km/h 22.2 km/h 29 % 0.0 mm 798.0 W/m2 CLR
16:11 17.4 °C 0.1 °C 1019.5 hPa North 22.2 km/h 22.2 km/h 31 % 0.0 mm 788.0 W/m2 CLR
16:16 17.7 °C -0.6 °C 1019.5 hPa NNW 24.1 km/h 24.1 km/h 29 % 0.0 mm 777.0 W/m2 CLR
16:21 17.5 °C -0.8 °C 1019.5 hPa NNW 24.1 km/h 24.1 km/h 29 % 0.0 mm 766.0 W/m2 CLR
16:26 17.6 °C -0.2 °C 1019.5 hPa NNW 22.2 km/h 22.2 km/h 30 % 0.0 mm 758.0 W/m2 CLR
16:31 17.8 °C -0.4 °C 1019.5 hPa NNW 35.4 km/h 35.4 km/h 29 % 0.0 mm 744.0 W/m2 CLR
16:36 17.6 °C -0.7 °C 1019.5 hPa NW 16.7 km/h 16.7 km/h 29 % 0.0 mm 733.0 W/m2 CLR
16:41 17.8 °C -0.4 °C 1019.5 hPa WNW 18.5 km/h 18.5 km/h 29 % 0.0 mm 721.0 W/m2 CLR
16:47 17.9 °C -0.9 °C 1019.5 hPa NNW 24.1 km/h 24.1 km/h 28 % 0.0 mm 710.0 W/m2 CLR
16:52 17.9 °C -1.3 °C 1019.5 hPa WNW 22.5 km/h 22.5 km/h 27 % 0.0 mm 696.0 W/m2 CLR
16:57 17.8 °C -1.9 °C 1019.5 hPa NNW 24.1 km/h 24.1 km/h 26 % 0.0 mm 682.0 W/m2 CLR
17:02 17.7 °C -1.6 °C 1019.2 hPa WNW 13.0 km/h 13.0 km/h 27 % 0.0 mm 670.0 W/m2 CLR
17:07 17.8 °C -1.9 °C 1019.5 hPa North 17.7 km/h 17.7 km/h 26 % 0.0 mm 657.0 W/m2 CLR
17:12 17.9 °C -1.9 °C 1019.5 hPa NE 18.5 km/h 18.5 km/h 26 % 0.0 mm 643.0 W/m2 CLR
17:17 18.1 °C -1.7 °C 1019.5 hPa North 24.1 km/h 24.1 km/h 26 % 0.0 mm 629.0 W/m2 CLR
17:22 18.1 °C -1.8 °C 1019.5 hPa NNE 18.5 km/h 18.5 km/h 26 % 0.0 mm 617.0 W/m2 CLR
17:27 17.8 °C -1.9 °C 1019.5 hPa North 22.2 km/h 22.2 km/h 26 % 0.0 mm 603.0 W/m2 CLR
17:32 17.7 °C -1.6 °C 1019.5 hPa NNW 27.8 km/h 27.8 km/h 27 % 0.0 mm 589.0 W/m2 CLR
17:37 17.7 °C -2.1 °C 1019.5 hPa North 5.6 km/h 5.6 km/h 26 % 0.0 mm 570.0 W/m2 CLR
17:42 17.9 °C -1.4 °C 1019.5 hPa North 25.9 km/h 25.9 km/h 27 % 0.0 mm 557.0 W/m2 CLR
17:47 17.9 °C -1.3 °C 1019.5 hPa NNW 18.5 km/h 18.5 km/h 27 % 0.0 mm 543.0 W/m2 CLR
17:52 17.9 °C -1.3 °C 1019.5 hPa NNE 18.5 km/h 18.5 km/h 27 % 0.0 mm 529.0 W/m2 CLR
17:57 18.0 °C -1.3 °C 1019.2 hPa North 13.0 km/h 13.0 km/h 27 % 0.0 mm 515.0 W/m2 CLR
18:02 18.1 °C -1.8 °C 1019.2 hPa NNE 16.1 km/h 16.1 km/h 26 % 0.0 mm 496.0 W/m2 CLR
18:07 17.9 °C -1.8 °C 1019.5 hPa NNW 11.1 km/h 11.1 km/h 26 % 0.0 mm 480.0 W/m2 CLR
18:12 18.1 °C -1.3 °C 1019.5 hPa NE 1.9 km/h   27 % 0.0 mm 462.0 W/m2 CLR
18:17 18.1 °C -1.2 °C 1019.2 hPa North 16.7 km/h 16.7 km/h 27 % 0.0 mm 448.0 W/m2 CLR
18:22 18.3 °C -0.5 °C 1019.2 hPa NNE 16.7 km/h 16.7 km/h 28 % 0.0 mm 431.0 W/m2 CLR
18:27 18.4 °C -0.9 °C 1019.2 hPa NNW 14.8 km/h 14.8 km/h 27 % 0.0 mm 417.0 W/m2 CLR
18:32 18.4 °C -0.9 °C 1019.2 hPa NNW 14.8 km/h 14.8 km/h 27 % 0.0 mm 397.0 W/m2 CLR
18:37 18.3 °C -1.1 °C 1019.2 hPa WSW 11.1 km/h 11.1 km/h 27 % 0.0 mm 378.0 W/m2 CLR
18:38 18.3 °C -1.1 °C 1019.2 hPa WSW 1.9 km/h   27 % 0.0 mm 376.0 W/m2 CLR
18:43 18.4 °C -0.4 °C 1019.2 hPa NNW 11.3 km/h 11.3 km/h 28 % 0.0 mm 360.0 W/m2 CLR
18:48 18.5 °C -0.9 °C 1019.2 hPa North 3.7 km/h   27 % 0.0 mm 348.0 W/m2 CLR
18:53 18.4 °C -0.9 °C 1019.2 hPa Calm     27 % 0.0 mm 329.0 W/m2 CLR
18:58 18.6 °C -0.3 °C 1019.2 hPa Calm     28 % 0.0 mm 311.0 W/m2 CLR
19:03 18.6 °C -0.8 °C 1019.2 hPa Calm     27 % 0.0 mm 294.0 W/m2 CLR
19:08 18.7 °C -0.2 °C 1019.2 hPa Calm     28 % 0.0 mm 276.0 W/m2 CLR
19:13 18.7 °C -0.2 °C 1019.2 hPa NNE 3.7 km/h 3.7 km/h 28 % 0.0 mm 260.0 W/m2 CLR
19:18 18.7 °C -0.2 °C 1019.2 hPa Calm     28 % 0.0 mm 246.0 W/m2 CLR
19:23 19.0 °C 0.1 °C 1019.2 hPa Calm     28 % 0.0 mm 221.0 W/m2 CLR
19:28 19.0 °C 0.1 °C 1019.2 hPa North 5.6 km/h 5.6 km/h 28 % 0.0 mm 209.0 W/m2 CLR
19:33 18.8 °C -0.1 °C 1019.2 hPa Calm     28 % 0.0 mm 179.0 W/m2 CLR
19:38 18.8 °C 0.4 °C 1019.2 hPa Calm     29 % 0.0 mm 144.0 W/m2 CLR
19:43 18.7 °C -0.2 °C 1019.5 hPa NE 5.6 km/h 5.6 km/h 28 % 0.0 mm 84.0 W/m2 CLR
19:48 18.2 °C -0.1 °C 1019.5 hPa Calm     29 % 0.0 mm 76.0 W/m2 CLR
19:53 17.9 °C -0.4 °C 1019.5 hPa Calm     29 % 0.0 mm 60.0 W/m2 FEW
19:54 17.9 °C -0.4 °C 1019.5 hPa Calm     29 % 0.0 mm 60.0 W/m2 FEW
19:59 17.6 °C -0.2 °C 1019.5 hPa Calm     30 % 0.0 mm 44.0 W/m2 BKN
20:04 17.2 °C -0.1 °C 1019.5 hPa Calm     31 % 0.0 mm 56.0 W/m2 SCT
20:09 17.0 °C -0.3 °C 1019.5 hPa Calm     31 % 0.0 mm 39.0 W/m2 BKN
20:14 16.8 °C 0.0 °C 1019.5 hPa Calm     32 % 0.0 mm 26.0 W/m2 BKN
20:19 16.7 °C -0.1 °C 1019.5 hPa Calm     32 % 0.0 mm 33.0 W/m2 BKN
20:24 16.7 °C -0.1 °C 1019.5 hPa Calm     32 % 0.0 mm 33.0 W/m2 BKN
20:29 16.7 °C 0.3 °C 1019.5 hPa Calm     33 % 0.0 mm 25.0 W/m2 BKN
20:34 16.7 °C 0.3 °C 1019.5 hPa Calm     33 % 0.0 mm 18.0 W/m2 BKN
20:39 16.6 °C 0.7 °C 1019.9 hPa Calm     34 % 0.0 mm 14.0 W/m2 BKN
20:44 16.4 °C 0.9 °C 1019.9 hPa Calm     35 % 0.0 mm 11.0 W/m2 BKN
20:49 16.1 °C 1.0 °C 1019.9 hPa Calm     36 % 0.0 mm 7.0 W/m2 BKN
20:54 15.9 °C 0.8 °C 1019.9 hPa Calm     36 % 0.0 mm 5.0 W/m2 OVC
20:59 15.7 °C 1.0 °C 1019.9 hPa Calm     37 % 0.0 mm 0.0 W/m2 OVC
21:04 15.4 °C 1.1 °C 1019.9 hPa Calm     38 % 0.0 mm 0.0 W/m2 CLR
21:09 15.2 °C 1.3 °C 1019.9 hPa Calm     39 % 0.0 mm 0.0 W/m2 CLR
21:14 14.9 °C 0.7 °C 1020.2 hPa Calm     38 % 0.0 mm 0.0 W/m2 CLR
21:19 14.7 °C 1.2 °C 1020.2 hPa Calm     40 % 0.0 mm 0.0 W/m2 CLR
21:24 14.4 °C 1.6 °C 1020.2 hPa Calm     42 % 0.0 mm 0.0 W/m2 CLR
21:29 14.0 °C 1.3 °C 1020.2 hPa Calm     42 % 0.0 mm 0.0 W/m2 CLR
21:34 13.7 °C 2.3 °C 1020.2 hPa Calm     46 % 0.0 mm 0.0 W/m2 CLR
21:39 13.3 °C 2.6 °C 1020.5 hPa Calm     48 % 0.0 mm 0.0 W/m2 CLR
21:44 12.9 °C 2.7 °C 1020.5 hPa Calm     50 % 0.0 mm 0.0 W/m2 CLR
21:49 12.4 °C 2.6 °C 1020.5 hPa Calm     51 % 0.0 mm 0.0 W/m2 CLR
21:54 12.2 °C 2.6 °C 1020.5 hPa Calm     52 % 0.0 mm 0.0 W/m2 CLR
21:59 12.0 °C 2.4 °C 1020.5 hPa Calm     52 % 0.0 mm 0.0 W/m2 CLR
22:04 11.9 °C 2.3 °C 1020.5 hPa Calm     52 % 0.0 mm 0.0 W/m2 CLR
22:09 11.8 °C 2.5 °C 1020.5 hPa Calm     53 % 0.0 mm 0.0 W/m2 CLR
22:14 11.6 °C 2.6 °C 1020.9 hPa Calm     54 % 0.0 mm 0.0 W/m2 CLR
22:19 11.3 °C 2.6 °C 1020.9 hPa Calm     55 % 0.0 mm 0.0 W/m2 CLR
22:24 11.1 °C 2.6 °C 1020.9 hPa Calm     56 % 0.0 mm 0.0 W/m2 CLR
22:29 10.9 °C 2.4 °C 1020.9 hPa Calm     56 % 0.0 mm 0.0 W/m2 CLR
22:34 10.8 °C 2.6 °C 1020.9 hPa Calm     57 % 0.0 mm 0.0 W/m2 CLR
22:39 10.6 °C 2.4 °C 1020.9 hPa Calm     57 % 0.0 mm 0.0 W/m2 CLR
22:44 10.4 °C 2.7 °C 1021.2 hPa Calm     59 % 0.0 mm 0.0 W/m2 CLR
22:49 10.2 °C 2.5 °C 1021.2 hPa Calm     59 % 0.0 mm 0.0 W/m2 CLR
22:54 9.9 °C 2.6 °C 1021.2 hPa Calm     60 % 0.0 mm 0.0 W/m2 CLR
22:59 9.7 °C 2.6 °C 1021.2 hPa Calm     61 % 0.0 mm 0.0 W/m2 CLR
23:04 9.6 °C 2.4 °C 1021.2 hPa Calm     61 % 0.0 mm 0.0 W/m2 CLR
23:09 9.6 °C 2.4 °C 1021.2 hPa Calm     61 % 0.0 mm 0.0 W/m2 CLR
23:14 9.5 °C 2.6 °C 1021.6 hPa Calm     62 % 0.0 mm 0.0 W/m2 CLR
23:19 9.3 °C 2.4 °C 1021.6 hPa Calm     62 % 0.0 mm 0.0 W/m2 CLR
23:29 9.0 °C 2.3 °C 1021.6 hPa Calm     63 % 0.0 mm 0.0 W/m2 CLR
23:34 8.9 °C 2.4 °C 1021.2 hPa Calm     64 % 0.0 mm 0.0 W/m2 CLR
23:39 8.9 °C 2.4 °C 1021.2 hPa Calm     64 % 0.0 mm 0.0 W/m2 CLR
23:44 8.8 °C 2.6 °C 1021.6 hPa Calm     65 % 0.0 mm 0.0 W/m2 CLR
23:49 8.7 °C 2.4 °C 1021.6 hPa Calm     65 % 0.0 mm 0.0 W/m2 CLR
23:54 8.5 °C 2.3 °C 1021.2 hPa Calm     65 % 0.0 mm 0.0 W/m2 CLR
23:59 8.4 °C 2.4 °C 1021.2 hPa Calm     66 % 0.0 mm 0.0 W/m2 CLR
Lo Temps de Massalio
Compliments of Weather Underground - 1.25 mb